Time;durP1;ratioP1;P1;durP2;ratioP2;P2;SDS_P1;SDS_P2;PMS_P1;PMS_P2;Temp;Humidity;BMP_temperature;BMP_pressure;BME280_temperature;BME280_humidity;BME280_pressure;Samples;Min_cycle;Max_cycle;Signal;HPM_P1;HPM_P2
2020/12/15 00:01:30;;;;;;;;;;;;;;;20.91;37.62;100700.91;5035882;28;905;-65
2020/12/15 00:03:55;;;;;;;;;;;;;;;20.91;37.67;100705.75;5035702;28;914;-65
2020/12/15 00:06:21;;;;;;;;;;;;;;;20.91;37.69;100712.13;5047717;28;2062;-66
2020/12/15 00:08:46;;;;;;;;;;;;;;;20.91;37.64;100711.34;5047023;28;2039;-64
2020/12/15 00:11:18;;;;;;;;;;;;;;;20.91;37.45;100714.16;5035412;28;1894;-65
2020/12/15 00:13:45;;;;;;;;;;;;;;;20.91;37.64;100716.97;5035617;28;979;-66
2020/12/15 00:16:11;;;;;;;;;;;;;;;20.90;37.62;100724.56;5037525;28;1979;-65
2020/12/15 00:18:36;;;;;;;;;;;;;;;20.89;37.56;100719.41;5049629;28;2352;-65
2020/12/15 00:21:02;;;;;;;;;;;;;;;20.90;37.62;100726.59;5055268;28;948;-64
2020/12/15 00:23:27;;;;;;;;;;;;;;;20.90;37.55;100723.78;5055180;28;1028;-65
2020/12/15 00:25:52;;;;;;;;;;;;;;;20.89;37.64;100737.03;5046243;28;2057;-65
2020/12/15 00:28:18;;;;;;;;;;;;;;;20.89;37.59;100733.44;5035590;28;987;-65
2020/12/15 00:30:44;;;;;;;;;;;;;;;20.89;37.56;100744.66;5035071;28;1953;-65
2020/12/15 00:33:09;;;;;;;;;;;;;;;20.89;37.68;100730.63;5033986;28;987;-65
2020/12/15 00:35:34;;;;;;;;;;;;;;;20.88;37.53;100737.44;5040930;28;2101;-64
2020/12/15 00:37:59;;;;;;;;;;;;;;;20.88;37.54;100745.84;5054480;28;2090;-65
2020/12/15 00:40:25;;;;;;;;;;;;;;;20.88;37.55;100757.88;5035108;28;979;-65
2020/12/15 00:42:50;;;;;;;;;;;;;;;20.87;37.73;100749.84;5034672;28;900;-65
2020/12/15 00:45:15;;;;;;;;;;;;;;;20.87;37.60;100747.88;5035314;28;1960;-65
2020/12/15 00:47:41;;;;;;;;;;;;;;;20.87;37.54;100756.28;5036307;28;1973;-65
2020/12/15 00:50:07;;;;;;;;;;;;;;;20.86;37.53;100768.72;5034760;28;979;-65
2020/12/15 00:52:32;;;;;;;;;;;;;;;20.85;37.64;100767.94;5035073;28;1958;-64
2020/12/15 00:54:57;;;;;;;;;;;;;;;20.85;37.64;100762.31;5034816;28;2009;-65
2020/12/15 00:57:23;;;;;;;;;;;;;;;20.85;37.61;100756.69;5054922;28;2010;-65
2020/12/15 00:59:48;;;;;;;;;;;;;;;20.84;37.59;100738.25;5054911;28;799;-65
2020/12/15 01:02:13;;;;;;;;;;;;;;;20.84;37.66;100741.06;5054394;28;905;-65
2020/12/15 01:04:38;;;;;;;;;;;;;;;20.85;37.81;100739.06;5054567;28;1015;-65
2020/12/15 01:07:04;;;;;;;;;;;;;;;20.83;37.66;100735.88;5037475;28;2381;-64
2020/12/15 01:09:29;;;;;;;;;;;;;;;20.83;37.62;100736.69;5046962;28;2116;-65
2020/12/15 01:11:56;;;;;;;;;;;;;;;20.83;37.52;100747.91;5054634;28;1906;-65
2020/12/15 01:14:21;;;;;;;;;;;;;;;20.83;37.67;100741.47;5054574;28;892;-65
2020/12/15 01:16:47;;;;;;;;;;;;;;;20.82;37.59;100740.69;5039539;28;1944;-65
2020/12/15 01:19:12;;;;;;;;;;;;;;;20.82;37.60;100734.28;5034326;28;888;-64
2020/12/15 01:21:37;;;;;;;;;;;;;;;20.82;37.54;100745.53;5016920;28;832;-65
2020/12/15 01:24:03;;;;;;;;;;;;;;;20.82;37.58;100748.31;5034877;28;948;-65
2020/12/15 01:26:28;;;;;;;;;;;;;;;20.81;37.60;100750.31;5046338;28;2104;-65
2020/12/15 01:28:53;;;;;;;;;;;;;;;20.81;37.56;100741.91;5047305;28;2021;-65
2020/12/15 01:31:23;;;;;;;;;;;;;;;20.81;37.50;100741.09;5034875;28;1959;-65
2020/12/15 01:33:49;;;;;;;;;;;;;;;20.81;37.56;100736.28;5034486;28;900;-64
2020/12/15 01:36:14;;;;;;;;;;;;;;;20.81;37.63;100738.31;5041044;28;2095;-64
2020/12/15 01:38:43;;;;;;;;;;;;;;;20.81;37.60;100741.09;5054477;28;924;-65
2020/12/15 01:41:08;;;;;;;;;;;;;;;20.80;37.61;100747.94;5035910;28;1463;-64
2020/12/15 01:43:34;;;;;;;;;;;;;;;20.80;37.65;100745.16;5055724;28;853;-64
2020/12/15 01:46:00;;;;;;;;;;;;;;;20.79;37.53;100743.53;5053009;28;2128;-65
2020/12/15 01:48:26;;;;;;;;;;;;;;;20.80;37.57;100736.72;5038026;28;2056;-64
2020/12/15 01:50:51;;;;;;;;;;;;;;;20.78;37.64;100731.53;5057466;28;1952;-64
2020/12/15 01:53:16;;;;;;;;;;;;;;;20.78;37.65;100731.53;5057992;28;894;-64
2020/12/15 01:55:44;;;;;;;;;;;;;;;20.79;37.61;100721.09;5054994;28;2107;-64
2020/12/15 01:58:10;;;;;;;;;;;;;;;20.78;37.59;100727.91;5038738;28;813;-65
2020/12/15 02:00:35;;;;;;;;;;;;;;;20.78;37.64;100716.69;5038142;28;904;-65
2020/12/15 02:03:02;;;;;;;;;;;;;;;20.77;37.57;100715.09;5037686;28;996;-65
2020/12/15 02:05:28;;;;;;;;;;;;;;;20.77;37.66;100715.91;5037449;28;2105;-65
2020/12/15 02:07:53;;;;;;;;;;;;;;;20.77;37.47;100720.72;5057474;28;2055;-65
2020/12/15 02:10:19;;;;;;;;;;;;;;;20.77;37.54;100713.09;5042454;28;2064;-65
2020/12/15 02:12:44;;;;;;;;;;;;;;;20.76;37.66;100713.50;5038020;28;983;-66
2020/12/15 02:15:10;;;;;;;;;;;;;;;20.75;37.56;100712.72;5038643;28;1967;-64
2020/12/15 02:17:35;;;;;;;;;;;;;;;20.75;37.66;100709.91;5037706;28;1942;-64
2020/12/15 02:20:10;;;;;;;;;;;;;;;20.75;37.60;100706.31;5037434;28;987;-64
2020/12/15 02:22:36;;;;;;;;;;;;;;;20.74;37.62;100699.88;5037574;28;1185;-64
2020/12/15 02:25:08;;;;;;;;;;;;;;;20.75;37.46;100695.09;5045124;28;1999;-65
2020/12/15 02:27:34;;;;;;;;;;;;;;;20.74;37.64;100708.31;5053547;28;2012;-65
2020/12/15 02:30:00;;;;;;;;;;;;;;;20.73;37.58;100692.72;5037010;28;1043;-64
2020/12/15 02:32:25;;;;;;;;;;;;;;;20.74;37.52;100705.50;5053816;28;2108;-64
2020/12/15 02:34:55;;;;;;;;;;;;;;;20.73;37.64;100698.31;5057691;28;886;-64
2020/12/15 02:37:21;;;;;;;;;;;;;;;20.73;37.64;100697.50;5057143;28;1345;-64
2020/12/15 02:39:46;;;;;;;;;;;;;;;20.72;37.60;100688.28;5053794;28;1801;-65
2020/12/15 02:42:11;;;;;;;;;;;;;;;20.73;37.64;100689.09;5055561;28;1960;-65
2020/12/15 02:44:36;;;;;;;;;;;;;;;20.72;37.61;100684.69;5037084;28;882;-66
2020/12/15 02:47:02;;;;;;;;;;;;;;;20.72;37.57;100687.50;5037266;28;1349;-65
2020/12/15 02:49:27;;;;;;;;;;;;;;;20.72;37.53;100684.69;5039480;28;1740;-65
2020/12/15 02:51:52;;;;;;;;;;;;;;;20.71;37.69;100689.53;5056475;28;1961;-66
2020/12/15 02:54:18;;;;;;;;;;;;;;;20.71;37.69;100683.91;5038876;28;2389;-66
2020/12/15 02:56:43;;;;;;;;;;;;;;;20.71;37.54;100686.72;5035696;28;1355;-65
2020/12/15 02:59:09;;;;;;;;;;;;;;;20.70;37.58;100681.53;5018955;28;1893;-66
2020/12/15 03:01:42;;;;;;;;;;;;;;;20.70;37.63;100681.53;5056655;28;897;-65
2020/12/15 03:04:08;;;;;;;;;;;;;;;20.70;37.51;100673.91;5056402;28;845;-65
2020/12/15 03:06:34;;;;;;;;;;;;;;;20.69;37.54;100677.91;5038426;28;1352;-65
2020/12/15 03:08:59;;;;;;;;;;;;;;;20.69;37.65;100680.72;5039230;28;1413;-64
2020/12/15 03:11:25;;;;;;;;;;;;;;;20.70;37.58;100675.91;5038158;28;1960;-66
2020/12/15 03:13:50;;;;;;;;;;;;;;;20.69;37.67;100679.91;5050063;28;2090;-65
2020/12/15 03:16:16;;;;;;;;;;;;;;;;;;5056199;28;1282;-64
2020/12/15 03:18:41;;;;;;;;;;;;;;;20.67;37.62;100686.75;5056423;28;1051;-65
2020/12/15 03:21:08;;;;;;;;;;;;;;;20.67;37.61;100683.94;5040294;28;2029;-64
2020/12/15 03:23:34;;;;;;;;;;;;;;;20.67;37.55;100683.94;5036446;28;913;-65
2020/12/15 03:25:59;;;;;;;;;;;;;;;20.67;37.50;100688.75;5035930;28;1255;-64
2020/12/15 03:28:24;;;;;;;;;;;;;;;20.67;37.60;100689.53;5036270;28;922;-64
2020/12/15 03:30:50;;;;;;;;;;;;;;;20.67;37.59;100688.75;5049332;28;2012;-64
2020/12/15 03:33:16;;;;;;;;;;;;;;;20.67;37.49;100691.56;5047151;28;1979;-64
2020/12/15 03:35:42;;;;;;;;;;;;;;;20.67;37.62;100688.75;5043666;28;1901;-64
2020/12/15 03:38:08;;;;;;;;;;;;;;;20.66;37.60;100690.78;5036401;28;920;-64
2020/12/15 03:40:33;;;;;;;;;;;;;;;20.66;37.60;100690.78;5036535;28;903;-64
2020/12/15 03:42:59;;;;;;;;;;;;;;;20.66;37.56;100692.78;5037703;28;2007;-65
2020/12/15 03:45:24;;;;;;;;;;;;;;;20.66;37.65;100693.56;5048332;28;2016;-64
2020/12/15 03:47:50;;;;;;;;;;;;;;;20.66;37.65;100692.78;5038240;28;1267;-64
2020/12/15 03:50:15;;;;;;;;;;;;;;;20.65;37.53;100694.78;5055374;28;1030;-65
2020/12/15 03:52:40;;;;;;;;;;;;;;;20.66;37.61;100696.38;5040755;28;1953;-65
2020/12/15 03:55:06;;;;;;;;;;;;;;;20.65;37.54;100694.78;5035637;28;876;-65
2020/12/15 03:57:32;;;;;;;;;;;;;;;20.65;37.55;100696.78;5035364;28;1341;-64
2020/12/15 03:59:58;;;;;;;;;;;;;;;20.65;37.56;100688.38;5035607;28;960;-64
2020/12/15 04:02:24;;;;;;;;;;;;;;;20.65;37.55;100691.97;5047110;28;1831;-65
2020/12/15 04:04:50;;;;;;;;;;;;;;;20.64;37.59;100687.59;5048097;28;1978;-65
2020/12/15 04:07:15;;;;;;;;;;;;;;;20.64;37.51;100690.41;5034884;28;1286;-65
2020/12/15 04:09:41;;;;;;;;;;;;;;;20.64;37.48;100693.19;5035437;28;971;-65
2020/12/15 04:12:06;;;;;;;;;;;;;;;20.64;37.61;100686.78;5044077;28;2039;-65
2020/12/15 04:14:32;;;;;;;;;;;;;;;20.63;37.52;100685.19;5050391;28;2067;-64
2020/12/15 04:16:57;;;;;;;;;;;;;;;20.64;37.55;100683.97;5035336;28;1270;-64
2020/12/15 04:19:22;;;;;;;;;;;;;;;20.63;37.58;100682.41;5035582;28;900;-64
2020/12/15 04:21:48;;;;;;;;;;;;;;;20.63;37.59;100682.41;5024076;28;2425;-64
2020/12/15 04:24:13;;;;;;;;;;;;;;;20.64;37.56;100681.16;5055501;28;988;-64
2020/12/15 04:26:38;;;;;;;;;;;;;;;20.63;37.55;100682.41;5054729;28;1246;-65
2020/12/15 04:29:04;;;;;;;;;;;;;;;20.63;37.65;100673.97;5055105;28;928;-64
2020/12/15 04:31:30;;;;;;;;;;;;;;;20.63;37.56;100673.97;5051193;28;1979;-64
2020/12/15 04:33:55;;;;;;;;;;;;;;;20.62;37.63;100675.97;5035386;28;878;-64
2020/12/15 04:36:21;;;;;;;;;;;;;;;20.62;37.56;100672.38;5053424;28;2425;-65
2020/12/15 04:38:46;;;;;;;;;;;;;;;20.62;37.50;100666.78;5055362;28;865;-64
2020/12/15 04:41:12;;;;;;;;;;;;;;;20.62;37.63;100686.41;5054126;28;2043;-64
2020/12/15 04:43:39;;;;;;;;;;;;;;;20.62;37.57;100675.19;5034732;28;1000;-64
2020/12/15 04:46:05;;;;;;;;;;;;;;;20.61;37.53;100685.59;5050464;28;2110;-64
2020/12/15 04:48:38;;;;;;;;;;;;;;;20.62;37.40;100680.78;5055067;28;976;-64
2020/12/15 04:51:03;;;;;;;;;;;;;;;20.60;37.49;100683.97;5054478;28;1897;-64
2020/12/15 04:53:31;;;;;;;;;;;;;;;20.61;37.56;100687.59;5035770;28;2188;-64
2020/12/15 04:55:57;;;;;;;;;;;;;;;20.61;37.42;100682.78;5048730;28;1771;-65
2020/12/15 04:58:23;;;;;;;;;;;;;;;20.61;37.56;100687.59;5054754;28;884;-64
2020/12/15 05:00:49;;;;;;;;;;;;;;;20.60;37.80;100689.59;5054852;28;856;-65
2020/12/15 05:03:20;;;;;;;;;;;;;;;20.60;37.64;100688.81;5037648;28;2344;-64
2020/12/15 05:05:49;;;;;;;;;;;;;;;20.60;37.60;100683.19;5046837;28;2039;-65
2020/12/15 05:08:14;;;;;;;;;;;;;;;20.59;37.57;100692.81;5054378;28;1103;-65
2020/12/15 05:10:40;;;;;;;;;;;;;;;20.59;37.58;100690.81;5054410;28;1901;-65
2020/12/15 05:13:05;;;;;;;;;;;;;;;20.59;37.54;100701.22;5038874;28;2120;-64
2020/12/15 05:15:32;;;;;;;;;;;;;;;20.60;37.44;100697.22;5034705;28;977;-64
2020/12/15 05:18:03;;;;;;;;;;;;;;;20.58;37.55;100694.81;5035243;28;890;-64
2020/12/15 05:20:31;;;;;;;;;;;;;;;20.59;37.54;100698.41;5038937;28;844;-64
2020/12/15 05:22:57;;;;;;;;;;;;;;;20.58;37.57;100703.25;5052636;28;2427;-64
2020/12/15 05:25:27;;;;;;;;;;;;;;;20.57;37.55;100701.63;5048618;28;2119;-64
2020/12/15 05:27:57;;;;;;;;;;;;;;;20.58;37.52;100697.63;5038461;28;1271;-64
2020/12/15 05:30:22;;;;;;;;;;;;;;;20.58;37.61;100699.66;5038618;28;1910;-64
2020/12/15 05:32:54;;;;;;;;;;;;;;;20.57;37.62;100703.66;5052568;28;2027;-65
2020/12/15 05:35:24;;;;;;;;;;;;;;;20.57;37.74;100704.44;5039652;28;1883;-66
2020/12/15 05:37:49;;;;;;;;;;;;;;;20.58;37.58;100708.06;5043484;28;1799;-67
2020/12/15 05:40:14;;;;;;;;;;;;;;;20.57;37.57;100707.25;5053851;28;2019;-66
2020/12/15 05:42:41;;;;;;;;;;;;;;;20.58;37.59;100706.03;5038527;28;871;-67
2020/12/15 05:45:06;;;;;;;;;;;;;;;20.57;37.84;100709.25;5038316;28;968;-67
2020/12/15 05:47:32;;;;;;;;;;;;;;;20.57;37.74;100703.66;5039199;28;1263;-67
2020/12/15 05:49:59;;;;;;;;;;;;;;;20.57;37.71;100710.06;5038578;28;1870;-67
2020/12/15 05:52:28;;;;;;;;;;;;;;;20.57;37.75;100706.47;5054412;28;1980;-64
2020/12/15 05:55:08;;;;;;;;;;;;;;;20.57;37.74;100700.84;5039317;28;2073;-64
2020/12/15 05:57:35;;;;;;;;;;;;;;;20.56;37.63;100711.28;5037994;28;1263;-64
2020/12/15 06:00:08;;;;;;;;;;;;;;;20.56;37.67;100711.28;5038487;28;2078;-64
2020/12/15 06:02:34;;;;;;;;;;;;;;;20.56;37.76;100713.28;5057587;28;806;-64
2020/12/15 06:04:59;;;;;;;;;;;;;;;20.55;37.70;100709.69;5057355;28;1043;-64
2020/12/15 06:07:26;;;;;;;;;;;;;;;20.56;37.77;100716.09;5057430;28;1353;-64
2020/12/15 06:09:55;;;;;;;;;;;;;;;20.55;37.66;100706.88;5057920;28;1055;-64
2020/12/15 06:12:21;;;;;;;;;;;;;;;20.55;37.86;100711.69;5054877;28;2012;-64
2020/12/15 06:14:49;;;;;;;;;;;;;;;20.55;37.79;100708.88;5042910;28;2083;-64
2020/12/15 06:17:17;;;;;;;;;;;;;;;20.55;37.77;100711.69;5037624;28;1286;-64
2020/12/15 06:19:43;;;;;;;;;;;;;;;20.54;37.82;100710.91;5054627;28;2094;-64
2020/12/15 06:22:09;;;;;;;;;;;;;;;20.54;37.88;100704.47;5057478;28;832;-64
2020/12/15 06:24:40;;;;;;;;;;;;;;;20.54;37.84;100710.09;5056832;28;860;-64
2020/12/15 06:27:11;;;;;;;;;;;;;;;20.54;37.90;100710.09;5057283;28;1278;-64
2020/12/15 06:29:40;;;;;;;;;;;;;;;20.53;37.84;100712.09;5039835;28;2129;-64
2020/12/15 06:32:16;;;;;;;;;;;;;;;20.55;37.86;100708.88;5043661;28;2004;-63
2020/12/15 06:34:45;;;;;;;;;;;;;;;20.54;37.92;100715.69;5037346;28;854;-64
2020/12/15 06:37:10;;;;;;;;;;;;;;;20.54;38.05;100710.09;5036796;28;1282;-64
2020/12/15 06:39:35;;;;;;;;;;;;;;;20.53;38.04;100709.31;5051926;28;2043;-64
2020/12/15 06:42:03;;;;;;;;;;;;;;;20.54;37.89;100712.88;5039107;28;2094;-64
2020/12/15 06:44:36;;;;;;;;;;;;;;;20.53;37.87;100711.31;5036869;28;1950;-64
2020/12/15 06:47:04;;;;;;;;;;;;;;;20.53;38.01;100708.50;5056945;28;1347;-63
2020/12/15 06:49:30;;;;;;;;;;;;;;;20.53;37.94;100708.50;5053217;28;1922;-64
2020/12/15 06:51:57;;;;;;;;;;;;;;;20.53;37.97;100714.13;5037115;28;1953;-63
2020/12/15 06:54:25;;;;;;;;;;;;;;;20.52;38.00;100716.13;5051749;28;2097;-65
2020/12/15 06:57:09;;;;;;;;;;;;;;;20.53;38.08;100723.31;5037233;28;1254;-64
2020/12/15 06:59:39;;;;;;;;;;;;;;;20.53;37.97;100719.72;5039675;28;2086;-64
2020/12/15 07:02:16;;;;;;;;;;;;;;;20.53;37.90;100725.34;5056348;28;804;-64
2020/12/15 07:04:48;;;;;;;;;;;;;;;20.52;38.01;100720.94;5056701;28;937;-64
2020/12/15 07:07:15;;;;;;;;;;;;;;;20.52;38.04;100721.75;5054069;28;2059;-63
2020/12/15 07:09:44;;;;;;;;;;;;;;;20.53;37.98;100722.53;5036690;28;2959;-64
2020/12/15 07:12:14;;;;;;;;;;;;;;;20.53;38.06;100728.16;5036544;28;1898;-64
2020/12/15 07:14:44;;;;;;;;;;;;;;;20.52;37.92;100729.34;5036572;28;885;-64
2020/12/15 07:17:10;;;;;;;;;;;;;;;20.51;38.07;100730.56;5055644;28;3883;-63
2020/12/15 07:19:36;;;;;;;;;;;;;;;20.51;38.05;100728.56;5063487;28;2137;-64
2020/12/15 07:22:06;;;;;;;;;;;;;;;20.50;38.06;100728.97;5063335;28;2866;-64
2020/12/15 07:24:31;;;;;;;;;;;;;;;20.50;37.95;100732.56;5063637;28;2201;-65
2020/12/15 07:27:01;;;;;;;;;;;;;;;20.51;37.96;100733.38;5065468;28;1444;-64
2020/12/15 07:29:26;;;;;;;;;;;;;;;20.50;38.15;100735.38;5063534;28;1154;-63
2020/12/15 07:31:51;;;;;;;;;;;;;;;20.51;38.08;100739.78;5065128;28;2009;-63
2020/12/15 07:34:17;;;;;;;;;;;;;;;20.50;38.00;100735.38;5064909;28;3154;-64
2020/12/15 07:36:48;;;;;;;;;;;;;;;20.50;38.10;100743.00;5062467;28;2160;-61
2020/12/15 07:39:15;;;;;;;;;;;;;;;20.50;37.97;100737.38;5065049;28;1779;-63
2020/12/15 07:41:41;;;;;;;;;;;;;;;20.50;37.94;100734.56;5062466;28;936;-64
2020/12/15 07:44:11;;;;;;;;;;;;;;;20.50;38.16;100740.97;5065036;28;936;-64
2020/12/15 07:46:43;;;;;;;;;;;;;;;20.49;38.04;100747.81;5063283;28;1952;-64
2020/12/15 07:49:09;;;;;;;;;;;;;;;20.49;38.09;100747.81;5064638;28;1210;-64
2020/12/15 07:51:37;;;;;;;;;;;;;;;20.50;38.00;100749.38;5063962;28;1926;-64
2020/12/15 07:54:03;;;;;;;;;;;;;;;20.49;38.09;100747.81;5065131;28;950;-63
2020/12/15 07:56:28;;;;;;;;;;;;;;;20.48;37.99;100752.59;5062581;28;1440;-64
2020/12/15 07:58:55;;;;;;;;;;;;;;;20.49;38.09;100753.41;5065841;28;1179;-67
2020/12/15 08:01:25;;;;;;;;;;;;;;;20.49;38.00;100767.44;5063811;28;1895;-67
2020/12/15 08:04:08;;;;;;;;;;;;;;;20.48;38.08;100761.00;5061826;28;1869;-65
2020/12/15 08:06:36;;;;;;;;;;;;;;;20.48;38.16;100747.00;5063307;28;1934;-65
2020/12/15 08:09:04;;;;;;;;;;;;;;;20.48;38.03;100749.00;5062431;28;1139;-64
2020/12/15 08:11:29;;;;;;;;;;;;;;;20.48;38.03;100754.63;5065001;28;2599;-65
2020/12/15 08:13:55;;;;;;;;;;;;;;;20.48;37.99;100771.44;5066723;28;1181;-65
2020/12/15 08:16:22;;;;;;;;;;;;;;;20.48;38.00;100765.84;5057114;28;1886;-65
2020/12/15 08:18:48;;;;;;;;;;;;;;;20.47;38.00;100767.84;5048847;28;2301;-65
2020/12/15 08:21:16;;;;;;;;;;;;;;;20.47;37.93;100767.84;5045934;28;2046;-65
2020/12/15 08:23:50;;;;;;;;;;;;;;;20.47;37.80;100773.47;5055122;28;1058;-65
2020/12/15 08:26:17;;;;;;;;;;;;;;;20.48;37.81;100772.22;5054889;28;1282;-65
2020/12/15 08:28:47;;;;;;;;;;;;;;;20.48;37.84;100763.81;5053035;28;2011;-65
2020/12/15 08:31:13;;;;;;;;;;;;;;;20.47;37.95;100767.84;5034806;28;1959;-65
2020/12/15 08:33:39;;;;;;;;;;;;;;;20.48;37.80;100774.25;5041893;28;1887;-65
2020/12/15 08:36:10;;;;;;;;;;;;;;;20.47;38.00;100775.47;5035268;28;1912;-65
2020/12/15 08:38:41;;;;;;;;;;;;;;;20.48;37.93;100788.28;5039490;28;2150;-65
2020/12/15 08:41:06;;;;;;;;;;;;;;;20.47;37.93;100783.88;5055063;28;911;-65
2020/12/15 08:43:33;;;;;;;;;;;;;;;20.47;37.85;100786.69;5054663;28;857;-65
2020/12/15 08:45:58;;;;;;;;;;;;;;;20.47;37.75;100784.69;5054881;28;1278;-64
2020/12/15 08:48:25;;;;;;;;;;;;;;;20.47;37.80;100778.28;5054867;28;913;-65
2020/12/15 08:50:52;;;;;;;;;;;;;;;20.48;37.88;100791.06;5055146;28;1901;-65
2020/12/15 08:53:20;;;;;;;;;;;;;;;20.46;37.75;100769.03;5048104;28;1964;-66
2020/12/15 08:55:47;;;;;;;;;;;;;;;20.47;37.82;100789.50;5046269;28;2166;-65
2020/12/15 08:58:12;;;;;;;;;;;;;;;20.46;37.86;100785.09;5021350;28;750;-65
2020/12/15 09:00:45;;;;;;;;;;;;;;;20.47;37.89;100789.50;5038887;28;956;-65
2020/12/15 09:03:13;;;;;;;;;;;;;;;20.48;37.89;100793.88;5039281;28;872;-65
2020/12/15 09:05:55;;;;;;;;;;;;;;;20.46;37.81;100791.47;5038588;28;1274;-65
2020/12/15 09:08:23;;;;;;;;;;;;;;;20.46;37.79;100796.31;5039776;28;2007;-65
2020/12/15 09:10:49;;;;;;;;;;;;;;;20.46;37.75;100799.91;5044869;28;1990;-66
2020/12/15 09:13:15;;;;;;;;;;;;;;;20.46;37.73;100799.91;5058953;28;900;-65
2020/12/15 09:15:49;;;;;;;;;;;;;;;20.47;37.76;100806.31;5058317;28;1368;-65
2020/12/15 09:18:15;;;;;;;;;;;;;;;20.46;37.81;100801.91;5058444;28;925;-65
2020/12/15 09:20:41;;;;;;;;;;;;;;;20.46;37.85;100799.91;5058512;28;927;-65
2020/12/15 09:23:06;;;;;;;;;;;;;;;20.46;37.79;100799.91;5056616;28;2009;-65
2020/12/15 09:25:32;;;;;;;;;;;;;;;20.45;37.80;100809.53;5047043;28;1977;-64
2020/12/15 09:27:57;;;;;;;;;;;;;;;20.45;37.71;100803.09;5038090;28;1079;-65
2020/12/15 09:30:22;;;;;;;;;;;;;;;20.46;37.79;100804.72;5038087;28;908;-65
2020/12/15 09:32:48;;;;;;;;;;;;;;;20.45;37.68;100803.94;5038268;28;1894;-65
2020/12/15 09:35:13;;;;;;;;;;;;;;;20.47;37.80;100814.72;5037892;28;770;-65
2020/12/15 09:37:40;;;;;;;;;;;;;;;20.44;37.70;100805.13;5038304;28;1325;-65
2020/12/15 09:40:10;;;;;;;;;;;;;;;20.45;37.77;100811.53;5051660;28;2095;-64
2020/12/15 09:42:45;;;;;;;;;;;;;;;20.45;37.75;100814.31;5040260;28;2086;-64
2020/12/15 09:45:11;;;;;;;;;;;;;;;20.45;37.73;100817.94;5038402;28;927;-65
2020/12/15 09:47:40;;;;;;;;;;;;;;;20.45;37.79;100811.53;5037966;28;1358;-65
2020/12/15 09:50:06;;;;;;;;;;;;;;;20.44;37.60;100813.53;5038206;28;880;-65
2020/12/15 09:52:31;;;;;;;;;;;;;;;20.44;37.80;100816.34;5038257;28;1961;-65
2020/12/15 09:54:57;;;;;;;;;;;;;;;20.44;37.68;100816.34;5039495;28;1830;-65
2020/12/15 09:57:22;;;;;;;;;;;;;;;20.43;37.60;100814.72;5044563;28;1953;-65
2020/12/15 09:59:47;;;;;;;;;;;;;;;20.43;37.69;100814.72;5058122;28;888;-65
2020/12/15 10:02:13;;;;;;;;;;;;;;;20.44;37.70;100815.56;5057424;28;959;-65
2020/12/15 10:04:38;;;;;;;;;;;;;;;20.43;37.73;100814.72;5057292;28;829;-65
2020/12/15 10:07:03;;;;;;;;;;;;;;;20.44;37.77;100819.16;5057582;28;1258;-65
2020/12/15 10:09:29;;;;;;;;;;;;;;;20.42;37.60;100829.97;5053705;28;2039;-65
2020/12/15 10:11:54;;;;;;;;;;;;;;;20.42;37.75;100832.78;5046257;28;2098;-65
2020/12/15 10:14:20;;;;;;;;;;;;;;;20.43;37.74;100831.56;5057432;28;1095;-64
2020/12/15 10:16:45;;;;;;;;;;;;;;;20.43;37.60;100825.16;5057334;28;1289;-65
2020/12/15 10:19:11;;;;;;;;;;;;;;;20.42;37.60;100829.19;5057358;28;988;-64
2020/12/15 10:21:37;;;;;;;;;;;;;;;20.42;37.77;100829.97;5057593;28;906;-65
2020/12/15 10:24:02;;;;;;;;;;;;;;;20.42;37.76;100829.19;5053017;28;1991;-65
2020/12/15 10:26:28;;;;;;;;;;;;;;;20.42;37.58;100834.81;5042358;28;1825;-65
2020/12/15 10:28:53;;;;;;;;;;;;;;;20.43;37.68;100844.78;5037213;28;866;-65
2020/12/15 10:31:19;;;;;;;;;;;;;;;20.41;37.76;100842.41;5037164;28;1914;-65
2020/12/15 10:33:45;;;;;;;;;;;;;;;20.42;37.56;100840.41;5038572;28;2391;-65
2020/12/15 10:36:12;;;;;;;;;;;;;;;20.41;37.62;100842.41;5036068;28;2094;-65
2020/12/15 10:38:38;;;;;;;;;;;;;;;20.40;37.66;100843.63;5036631;28;1253;-65
2020/12/15 10:41:03;;;;;;;;;;;;;;;20.41;37.60;100841.59;5043861;28;1644;-65
2020/12/15 10:43:29;;;;;;;;;;;;;;;20.41;37.66;100839.59;5041794;28;1264;-65
2020/12/15 10:45:54;;;;;;;;;;;;;;;20.41;37.74;100841.59;5054031;28;1728;-64
2020/12/15 10:48:19;;;;;;;;;;;;;;;20.40;37.75;100849.22;5055233;28;2117;-65
2020/12/15 10:50:45;;;;;;;;;;;;;;;20.40;37.66;100860.44;5045875;28;1977;-65
2020/12/15 10:53:10;;;;;;;;;;;;;;;20.39;37.78;100853.22;5043910;28;2077;-65
2020/12/15 10:55:37;;;;;;;;;;;;;;;20.40;37.90;100862.44;5056501;28;1250;-65
2020/12/15 10:58:03;;;;;;;;;;;;;;;20.39;37.65;100869.28;5057137;28;832;-65
2020/12/15 11:00:29;;;;;;;;;;;;;;;20.40;37.67;100865.25;5041926;28;2005;-64
2020/12/15 11:02:54;;;;;;;;;;;;;;;20.39;37.65;100860.84;5051622;28;2210;-64
2020/12/15 11:05:19;;;;;;;;;;;;;;;20.40;37.69;100854.03;5044168;28;2045;-64
2020/12/15 11:07:45;;;;;;;;;;;;;;;20.38;37.60;100854.47;5047099;28;1945;-64
2020/12/15 11:10:10;;;;;;;;;;;;;;;20.39;37.74;100858.84;5056607;28;919;-64
2020/12/15 11:12:36;;;;;;;;;;;;;;;20.38;37.60;100868.47;5038207;28;2168;-65
2020/12/15 11:15:01;;;;;;;;;;;;;;;20.38;37.54;100870.47;5041682;28;1930;-65
2020/12/15 11:17:26;;;;;;;;;;;;;;;20.37;37.62;100864.06;5017856;28;1399;-65
2020/12/15 11:19:52;;;;;;;;;;;;;;;20.38;37.78;100867.66;5037946;28;2373;-64
2020/12/15 11:22:17;;;;;;;;;;;;;;;20.39;37.70;100872.06;5056616;28;917;-64
2020/12/15 11:24:42;;;;;;;;;;;;;;;20.38;37.65;100873.25;5056363;28;854;-63
2020/12/15 11:27:08;;;;;;;;;;;;;;;20.38;37.72;100865.69;5049629;28;2029;-64
2020/12/15 11:29:33;;;;;;;;;;;;;;;20.38;37.73;100860.06;5036224;28;1795;-64
2020/12/15 11:31:58;;;;;;;;;;;;;;;20.39;37.79;100863.66;5036365;28;2025;-64
2020/12/15 11:34:24;;;;;;;;;;;;;;;20.38;37.72;100862.06;5035992;28;998;-64
2020/12/15 11:36:55;;;;;;;;;;;;;;;20.38;37.65;100874.09;5036511;28;1345;-63
2020/12/15 11:39:22;;;;;;;;;;;;;;;20.38;37.77;100876.06;5036207;28;899;-64
2020/12/15 11:41:49;;;;;;;;;;;;;;;20.37;37.66;100872.47;5039084;28;1791;-62
2020/12/15 11:44:14;;;;;;;;;;;;;;;20.38;37.79;100876.06;5040482;28;2368;-64
2020/12/15 11:46:39;;;;;;;;;;;;;;;20.37;37.75;100874.50;5035651;28;1259;-64
2020/12/15 11:49:05;;;;;;;;;;;;;;;20.37;37.79;100864.06;5038520;28;2125;-64
2020/12/15 11:51:30;;;;;;;;;;;;;;;20.37;37.73;100869.69;5034823;28;1977;-65
2020/12/15 11:53:55;;;;;;;;;;;;;;;20.37;37.84;100857.66;5034667;28;1769;-63
2020/12/15 11:56:21;;;;;;;;;;;;;;;20.37;37.73;100858.47;5034824;28;1459;-65
2020/12/15 11:58:46;;;;;;;;;;;;;;;20.35;37.78;100857.25;5034854;28;1416;-64
2020/12/15 12:01:12;;;;;;;;;;;;;;;20.35;37.91;100852.47;5034849;28;1317;-64
2020/12/15 12:03:38;;;;;;;;;;;;;;;20.35;37.84;100855.28;5042975;28;1348;-64
2020/12/15 12:06:04;;;;;;;;;;;;;;;20.35;37.74;100857.25;5052352;28;1579;-64
2020/12/15 12:08:29;;;;;;;;;;;;;;;20.35;37.80;100858.06;5034444;28;1364;-65
2020/12/15 12:10:54;;;;;;;;;;;;;;;20.35;37.77;100868.47;5035565;28;1961;-65
2020/12/15 12:13:20;;;;;;;;;;;;;;;20.35;37.88;100862.88;5034541;28;1386;-64
2020/12/15 12:15:45;;;;;;;;;;;;;;;20.34;37.93;100864.09;5052124;28;1750;-64
2020/12/15 12:18:10;;;;;;;;;;;;;;;20.35;37.89;100865.66;5039610;28;2135;-64
2020/12/15 12:20:35;;;;;;;;;;;;;;;20.34;37.96;100870.50;5035005;28;919;-64
2020/12/15 12:23:03;;;;;;;;;;;;;;;20.34;37.60;100873.28;5036267;28;2111;-64
2020/12/15 12:25:28;;;;;;;;;;;;;;;20.35;37.88;100865.66;5035068;28;926;-64
2020/12/15 12:27:54;;;;;;;;;;;;;;;20.35;37.78;100857.25;5034866;28;1326;-64
2020/12/15 12:30:19;;;;;;;;;;;;;;;20.35;37.74;100865.66;5036172;28;2107;-64
2020/12/15 12:32:45;;;;;;;;;;;;;;;20.34;37.90;100859.28;5037046;28;2118;-64
2020/12/15 12:35:10;;;;;;;;;;;;;;;20.34;37.78;100850.88;5046241;28;2042;-64
2020/12/15 12:37:35;;;;;;;;;;;;;;;20.34;37.83;100850.88;5035607;28;1262;-64
2020/12/15 12:40:01;;;;;;;;;;;;;;;20.34;37.89;100842.44;5034692;28;907;-64
2020/12/15 12:42:26;;;;;;;;;;;;;;;20.34;37.87;100850.88;5035180;28;941;-64
2020/12/15 12:44:53;;;;;;;;;;;;;;;20.34;37.88;100859.28;5036290;28;2073;-65
2020/12/15 12:47:18;;;;;;;;;;;;;;;20.33;38.05;100849.28;5034977;28;1364;-64